createdAt,value
2023-04-11T00:00:54.019Z,19.1356
2023-04-11T00:01:55.684Z,19.0667
2023-04-11T00:02:57.621Z,19.0119
2023-04-11T00:03:59.146Z,19.0296
2023-04-11T00:05:00.739Z,19.1041
2023-04-11T00:06:02.279Z,19.1247
2023-04-11T00:07:03.902Z,19.1078
2023-04-11T00:08:05.642Z,19.0448
2023-04-11T00:09:07.216Z,18.9809
2023-04-11T00:10:08.871Z,19.0057
2023-04-11T00:11:10.649Z,19.0443
2023-04-11T00:12:12.180Z,19.1093
2023-04-11T00:13:13.935Z,19.0994
2023-04-11T00:14:16.097Z,19.0037
2023-04-11T00:15:17.141Z,19.0002
2023-04-11T00:16:18.851Z,19.0558
2023-04-11T00:17:20.471Z,19.0269
2023-04-11T00:18:22.165Z,18.9959
2023-04-11T00:19:23.770Z,19.0308
2023-04-11T00:20:25.449Z,19.1738
2023-04-11T00:21:27.126Z,19.1703
2023-04-11T00:22:28.744Z,19.1565
2023-04-11T00:23:31.292Z,19.1356
2023-04-11T00:24:32.073Z,19.0139
2023-04-11T00:25:33.796Z,18.9735
2023-04-11T00:26:35.370Z,18.9766
2023-04-11T00:27:37.019Z,19.0014
2023-04-11T00:28:38.766Z,19.0674
2023-04-11T00:29:40.417Z,19.0873
2023-04-11T00:30:42.031Z,19.0341
2023-04-11T00:31:43.742Z,18.9749
2023-04-11T00:32:45.366Z,18.9550
2023-04-11T00:33:47.058Z,18.9874
2023-04-11T00:34:48.714Z,18.9848
2023-04-11T00:35:50.364Z,18.9745
2023-04-11T00:36:52.034Z,18.9494
2023-04-11T00:37:53.576Z,18.9482
2023-04-11T00:38:56.001Z,18.9482
2023-04-11T00:39:57.013Z,18.9657
2023-04-11T00:40:58.625Z,18.9977
2023-04-11T00:42:00.321Z,18.9953
2023-04-11T00:43:02.045Z,18.9776
2023-04-11T00:44:03.638Z,18.9460
2023-04-11T00:45:05.264Z,18.9593
2023-04-11T00:46:07.030Z,18.9790
2023-04-11T00:47:08.675Z,18.9792
2023-04-11T00:48:10.227Z,18.9858
2023-04-11T00:49:11.904Z,19.0637
2023-04-11T00:50:13.558Z,19.1497
2023-04-11T00:51:15.291Z,19.1302
2023-04-11T00:52:16.857Z,19.0887
2023-04-11T00:53:18.548Z,19.0306
2023-04-11T00:54:20.213Z,18.9819
2023-04-11T00:55:21.800Z,18.9392
2023-04-11T00:56:23.432Z,18.9404
2023-04-11T00:57:25.155Z,18.9482
2023-04-11T00:58:26.790Z,18.9757
2023-04-11T00:59:28.395Z,18.9866
2023-04-11T01:00:30.176Z,18.9700
2023-04-11T01:01:32.801Z,18.9445
2023-04-11T01:02:33.446Z,18.9190
2023-04-11T01:03:35.160Z,18.9088
2023-04-11T01:04:36.770Z,18.9367
2023-04-11T01:05:38.401Z,18.9455
2023-04-11T01:06:40.032Z,18.9521
2023-04-11T01:07:41.678Z,18.9729
2023-04-11T01:08:43.304Z,18.9486
2023-04-11T01:09:45.006Z,18.9242
2023-04-11T01:10:46.634Z,18.8537
2023-04-11T01:11:48.266Z,18.8492
2023-04-11T01:12:49.906Z,18.8946
2023-04-11T01:13:51.592Z,18.9229
2023-04-11T01:14:53.267Z,18.9464
2023-04-11T01:15:54.927Z,18.9464
2023-04-11T01:16:56.699Z,18.9342
2023-04-11T01:17:58.258Z,18.9084
2023-04-11T01:18:59.901Z,18.9018
2023-04-11T01:20:01.766Z,18.8810
2023-04-11T01:21:03.177Z,18.9041
2023-04-11T01:22:04.755Z,18.9334
2023-04-11T01:23:05.306Z,18.9343
2023-04-11T01:24:08.139Z,18.9424
2023-04-11T01:25:10.247Z,18.9384
2023-04-11T01:26:11.518Z,18.9351
2023-04-11T01:27:13.170Z,18.9377
2023-04-11T01:28:14.891Z,18.9371
2023-04-11T01:29:16.409Z,18.9529
2023-04-11T01:30:18.237Z,18.9971
2023-04-11T01:31:19.728Z,18.9881
2023-04-11T01:32:21.436Z,18.9605
2023-04-11T01:33:23.063Z,18.9264
2023-04-11T01:34:24.755Z,18.8983
2023-04-11T01:35:27.212Z,18.8802
2023-04-11T01:36:28.023Z,18.8815
2023-04-11T01:37:29.590Z,18.9260
2023-04-11T01:38:31.290Z,18.9289
2023-04-11T01:39:33.011Z,18.9248
2023-04-11T01:40:34.649Z,18.9334
2023-04-11T01:41:36.251Z,18.9365
2023-04-11T01:42:38.001Z,18.9219
2023-04-11T01:43:39.529Z,18.8911
2023-04-11T01:44:41.200Z,18.8936
2023-04-11T01:45:42.881Z,18.8960
2023-04-11T01:46:44.561Z,18.9026
2023-04-11T01:47:47.046Z,18.9151
2023-04-11T01:48:47.945Z,18.9215
2023-04-11T01:49:49.485Z,18.8765
2023-04-11T01:50:51.152Z,18.8656
2023-04-11T01:51:52.795Z,18.8993
2023-04-11T01:52:54.524Z,18.9008
2023-04-11T01:53:56.123Z,18.8940
2023-04-11T01:54:58.291Z,18.9065
2023-04-11T01:55:59.416Z,18.8985
2023-04-11T01:57:01.016Z,18.9010
2023-04-11T01:58:02.737Z,18.9121
2023-04-11T01:59:04.393Z,18.8864
2023-04-11T02:00:06.706Z,18.8802
2023-04-11T02:01:07.859Z,18.8570
2023-04-11T02:02:09.471Z,18.8782
2023-04-11T02:03:11.121Z,18.9114
2023-04-11T02:04:12.825Z,18.9139
2023-04-11T02:05:14.344Z,18.8960
2023-04-11T02:06:16.598Z,18.8862
2023-04-11T02:07:17.658Z,18.9012
2023-04-11T02:08:19.218Z,18.9472
2023-04-11T02:09:20.892Z,18.9400
2023-04-11T02:10:22.533Z,18.8745
2023-04-11T02:11:24.322Z,18.8332
2023-04-11T02:12:25.870Z,18.7416
2023-04-11T02:13:27.416Z,18.7258
2023-04-11T02:14:29.133Z,18.7237
2023-04-11T02:15:30.934Z,18.7915
2023-04-11T02:16:32.536Z,18.8576
2023-04-11T02:17:34.226Z,18.8948
2023-04-11T02:18:35.728Z,18.8864
2023-04-11T02:19:37.457Z,18.9219
2023-04-11T02:20:39.140Z,18.9236
2023-04-11T02:21:40.790Z,18.8825
2023-04-11T02:22:42.458Z,18.8849
2023-04-11T02:23:44.147Z,18.8704
2023-04-11T02:24:45.741Z,18.8650
2023-04-11T02:25:48.224Z,18.8548
2023-04-11T02:26:49.148Z,18.8679
2023-04-11T02:27:50.803Z,18.8977
2023-04-11T02:28:52.462Z,18.9131
2023-04-11T02:29:54.031Z,18.8804
2023-04-11T02:30:55.732Z,18.8449
2023-04-11T02:31:57.374Z,18.8523
2023-04-11T02:32:59.028Z,18.8566
2023-04-11T02:34:00.635Z,18.8720
2023-04-11T02:35:02.320Z,18.8784
2023-04-11T02:36:04.110Z,18.8977
2023-04-11T02:37:05.747Z,18.8599
2023-04-11T02:38:07.189Z,18.8328
2023-04-11T02:39:08.912Z,18.8712
2023-04-11T02:40:10.495Z,18.9238
2023-04-11T02:41:12.190Z,18.9425
2023-04-11T02:42:14.583Z,18.9361
2023-04-11T02:43:15.601Z,18.8870
2023-04-11T02:44:17.207Z,18.8500
2023-04-11T02:45:18.881Z,18.7389
2023-04-11T02:46:20.443Z,18.7200
2023-04-11T02:47:22.362Z,18.7510
2023-04-11T02:48:23.861Z,18.8223
2023-04-11T02:49:25.428Z,18.8726
2023-04-11T02:50:27.124Z,18.8773
2023-04-11T02:51:28.816Z,18.8901
2023-04-11T02:52:30.444Z,18.8940
2023-04-11T02:53:32.075Z,18.8923
2023-04-11T02:54:33.806Z,18.9127
2023-04-11T02:55:35.422Z,18.9488
2023-04-11T02:56:37.019Z,19.0363
2023-04-11T02:57:38.648Z,19.2284
2023-04-11T02:58:40.324Z,19.3412
2023-04-11T02:59:41.942Z,19.4241
2023-04-11T03:00:43.644Z,19.4862
2023-04-11T03:01:45.351Z,19.4884
2023-04-11T03:02:46.933Z,19.4494
2023-04-11T03:03:48.595Z,19.4373
2023-04-11T03:04:50.207Z,19.4420
2023-04-11T03:05:51.785Z,19.4381
2023-04-11T03:06:53.438Z,19.4383
2023-04-11T03:07:55.237Z,19.4422
2023-04-11T03:08:57.489Z,19.4486
2023-04-11T03:09:58.526Z,19.4574
2023-04-11T03:11:00.082Z,19.4685
2023-04-11T03:12:01.726Z,19.4689
2023-04-11T03:13:04.312Z,19.4928
2023-04-11T03:14:05.070Z,19.5075
2023-04-11T03:15:06.738Z,19.5158
2023-04-11T03:16:08.435Z,19.5577
2023-04-11T03:17:09.986Z,19.5560
2023-04-11T03:18:11.698Z,19.5497
2023-04-11T03:19:13.423Z,19.5418
2023-04-11T03:20:14.993Z,19.6131
2023-04-11T03:21:16.620Z,19.6495
2023-04-11T03:22:18.256Z,19.6552
2023-04-11T03:23:19.963Z,19.6823
2023-04-11T03:24:21.591Z,19.6844
2023-04-11T03:25:23.335Z,19.6774
2023-04-11T03:26:24.942Z,19.6850
2023-04-11T03:27:26.547Z,19.6969
2023-04-11T03:28:29.236Z,19.7245
2023-04-11T03:29:29.905Z,19.7409
2023-04-11T03:30:31.512Z,19.7575
2023-04-11T03:31:33.195Z,19.7627
2023-04-11T03:32:34.848Z,19.7612
2023-04-11T03:33:37.387Z,19.7799
2023-04-11T03:34:38.198Z,19.8270
2023-04-11T03:35:39.887Z,19.8662
2023-04-11T03:36:41.491Z,19.8627
2023-04-11T03:37:43.076Z,19.8734
2023-04-11T03:38:44.699Z,19.9034
2023-04-11T03:39:46.477Z,19.9153
2023-04-11T03:40:48.070Z,19.9120
2023-04-11T03:41:49.738Z,19.9169
2023-04-11T03:42:51.368Z,19.9323
2023-04-11T03:43:53.013Z,19.9477
2023-04-11T03:44:54.740Z,19.9800
2023-04-11T03:45:56.380Z,19.9808
2023-04-11T03:46:58.067Z,19.9788
2023-04-11T03:47:59.660Z,19.9757
2023-04-11T03:49:01.270Z,19.9775
2023-04-11T03:50:03.291Z,19.9841
2023-04-11T03:51:04.602Z,19.9845
2023-04-11T03:52:06.216Z,19.9864
2023-04-11T03:53:07.854Z,19.9753
2023-04-11T03:54:09.514Z,19.9837
2023-04-11T03:55:11.186Z,20.0102
2023-04-11T03:56:12.822Z,20.0118
2023-04-11T03:57:14.587Z,20.0159
2023-04-11T03:58:16.168Z,20.0309
2023-04-11T03:59:17.816Z,20.0420
2023-04-11T04:00:20.139Z,20.0650
2023-04-11T04:01:21.141Z,20.0730
2023-04-11T04:02:22.957Z,20.0983
2023-04-11T04:03:24.680Z,20.1110
2023-04-11T04:04:26.262Z,20.1160
2023-04-11T04:05:27.752Z,20.1057
2023-04-11T04:06:29.370Z,20.1186
2023-04-11T04:07:31.077Z,20.1509
2023-04-11T04:08:32.690Z,20.1566
2023-04-11T04:09:34.431Z,20.1507
2023-04-11T04:10:35.973Z,20.1813
2023-04-11T04:11:37.665Z,20.2117
2023-04-11T04:12:39.362Z,20.2207
2023-04-11T04:13:40.979Z,20.2174
2023-04-11T04:14:42.662Z,20.2261
2023-04-11T04:15:44.300Z,20.2345
2023-04-11T04:16:46.060Z,20.2388
2023-04-11T04:17:47.618Z,20.2398
2023-04-11T04:18:49.249Z,20.2561
2023-04-11T04:19:50.903Z,20.2472
2023-04-11T04:20:52.533Z,20.2534
2023-04-11T04:21:54.210Z,20.2684
2023-04-11T04:22:55.830Z,20.2717
2023-04-11T04:23:57.622Z,20.2778
2023-04-11T04:24:59.445Z,20.2852
2023-04-11T04:26:00.831Z,20.3448
2023-04-11T04:27:02.528Z,20.3699
2023-04-11T04:28:04.081Z,20.3588
2023-04-11T04:29:05.756Z,20.3545
2023-04-11T04:30:07.462Z,20.3466
2023-04-11T04:31:09.078Z,20.3508
2023-04-11T04:32:10.883Z,20.3337
2023-04-11T04:33:12.535Z,20.3216
2023-04-11T04:34:14.007Z,20.3436
2023-04-11T04:35:15.672Z,20.3557
2023-04-11T04:36:17.225Z,20.3641
2023-04-11T04:37:18.940Z,20.3678
2023-04-11T04:38:20.556Z,20.3643
2023-04-11T04:39:22.208Z,20.3674
2023-04-11T04:40:23.913Z,20.3785
2023-04-11T04:41:25.517Z,20.3824
2023-04-11T04:42:27.172Z,20.3713
2023-04-11T04:43:28.925Z,20.3768
2023-04-11T04:44:30.529Z,20.4251
2023-04-11T04:45:32.374Z,20.4109
2023-04-11T04:46:33.828Z,20.4124
2023-04-11T04:47:35.529Z,20.4052
2023-04-11T04:48:37.124Z,20.4413
2023-04-11T04:49:38.762Z,20.4750
2023-04-11T04:50:40.474Z,20.4802
2023-04-11T04:51:42.072Z,20.4680
2023-04-11T04:52:43.666Z,20.4508
2023-04-11T04:53:45.430Z,20.4514
2023-04-11T04:54:47.078Z,20.4643
2023-04-11T04:55:48.736Z,20.4678
2023-04-11T04:56:50.329Z,20.4650
2023-04-11T04:57:52.051Z,20.4586
2023-04-11T04:58:53.575Z,20.4557
2023-04-11T04:59:55.289Z,20.4617
2023-04-11T05:00:56.952Z,20.4715
2023-04-11T05:01:58.639Z,20.4654
2023-04-11T05:03:00.398Z,20.4520
2023-04-11T05:04:02.489Z,20.4333
2023-04-11T05:05:03.623Z,20.4040
2023-04-11T05:06:05.257Z,20.4089
2023-04-11T05:07:06.873Z,20.4081
2023-04-11T05:08:08.506Z,20.4144
2023-04-11T05:09:10.153Z,20.4265
2023-04-11T05:10:11.832Z,20.4327
2023-04-11T05:11:13.798Z,20.4378
2023-04-11T05:12:15.064Z,20.4290
2023-04-11T05:13:16.704Z,20.4259
2023-04-11T05:14:18.388Z,20.4243
2023-04-11T05:15:20.416Z,20.4134
2023-04-11T05:16:21.817Z,20.4438
2023-04-11T05:17:25.182Z,20.4606
2023-04-11T05:18:25.046Z,20.4629
2023-04-11T05:19:26.681Z,20.4656
2023-04-11T05:20:29.250Z,20.4602
2023-04-11T05:21:30.835Z,20.4574
2023-04-11T05:22:31.625Z,20.4629
2023-04-11T05:23:33.372Z,20.5607
2023-04-11T05:24:34.987Z,20.6145
2023-04-11T05:25:36.754Z,20.5827
2023-04-11T05:26:38.966Z,20.5395
2023-04-11T05:27:39.994Z,20.4641
2023-04-11T05:28:41.782Z,20.5153
2023-04-11T05:29:43.345Z,20.7026
2023-04-11T05:30:44.968Z,20.6884
2023-04-11T05:31:46.924Z,20.5977
2023-04-11T05:32:48.345Z,20.5613
2023-04-11T05:33:51.017Z,20.4910
2023-04-11T05:34:51.635Z,20.5332
2023-04-11T05:35:53.324Z,20.6661
2023-04-11T05:36:54.875Z,20.6774
2023-04-11T05:37:56.742Z,20.6757
2023-04-11T05:38:58.260Z,20.6299
2023-04-11T05:39:59.820Z,20.5611
2023-04-11T05:41:01.453Z,20.5847
2023-04-11T05:42:03.151Z,20.7199
2023-04-11T05:43:04.999Z,20.7318
2023-04-11T05:44:06.390Z,20.7117
2023-04-11T05:45:08.089Z,20.6769
2023-04-11T05:46:09.740Z,20.5508
2023-04-11T05:47:11.595Z,20.5699
2023-04-11T05:48:14.227Z,20.7490
2023-04-11T05:49:14.788Z,20.7715
2023-04-11T05:50:16.483Z,20.7178
2023-04-11T05:51:18.194Z,20.6884
2023-04-11T05:52:19.930Z,20.5880
2023-04-11T05:53:21.376Z,20.6422
2023-04-11T05:54:23.044Z,20.7936
2023-04-11T05:55:24.719Z,20.7842
2023-04-11T05:56:26.352Z,20.7780
2023-04-11T05:57:28.337Z,20.7402
2023-04-11T05:58:29.673Z,20.6714
2023-04-11T05:59:31.364Z,20.7663
2023-04-11T06:00:32.958Z,20.9049
2023-04-11T06:01:34.520Z,20.9074
2023-04-11T06:02:36.295Z,20.8635
2023-04-11T06:03:37.912Z,20.7729
2023-04-11T06:04:40.117Z,20.6995
2023-04-11T06:05:41.133Z,20.8074
2023-04-11T06:06:42.752Z,20.9064
2023-04-11T06:07:44.443Z,20.8951
2023-04-11T06:08:46.159Z,20.8663
2023-04-11T06:09:47.834Z,20.7614
2023-04-11T06:10:49.502Z,20.7073
2023-04-11T06:11:51.124Z,20.8343
2023-04-11T06:12:52.780Z,20.8934
2023-04-11T06:13:54.545Z,20.8957
2023-04-11T06:14:56.019Z,20.8920
2023-04-11T06:15:57.873Z,20.8224
2023-04-11T06:16:59.391Z,20.8287
2023-04-11T06:18:01.196Z,20.9271
2023-04-11T06:19:02.649Z,20.9325
2023-04-11T06:20:05.919Z,20.9349
2023-04-11T06:21:06.125Z,20.9029
2023-04-11T06:22:07.758Z,20.8402
2023-04-11T06:23:09.968Z,20.8602
2023-04-11T06:24:10.915Z,20.9542
2023-04-11T06:25:12.602Z,20.9510
2023-04-11T06:26:14.234Z,20.9532
2023-04-11T06:27:16.844Z,20.9097
2023-04-11T06:28:17.642Z,20.8867
2023-04-11T06:29:19.945Z,20.9175
2023-04-11T06:30:21.051Z,20.9450
2023-04-11T06:31:23.569Z,20.9588
2023-04-11T06:32:24.633Z,20.9551
2023-04-11T06:33:25.755Z,20.9251
2023-04-11T06:34:27.677Z,20.8852
2023-04-11T06:35:29.166Z,20.9734
2023-04-11T06:36:30.787Z,20.9914
2023-04-11T06:37:32.512Z,20.9937
2023-04-11T06:38:34.586Z,20.9748
2023-04-11T06:39:35.825Z,20.9384
2023-04-11T06:40:37.452Z,20.9625
2023-04-11T06:41:39.026Z,21.0450
2023-04-11T06:42:41.050Z,21.0348
2023-04-11T06:43:42.539Z,21.0313
2023-04-11T06:44:44.373Z,20.9662
2023-04-11T06:45:45.652Z,20.9660
2023-04-11T06:46:47.488Z,21.0641
2023-04-11T06:47:49.075Z,21.0648
2023-04-11T06:48:50.634Z,21.0744
2023-04-11T06:49:52.240Z,21.0415
2023-04-11T06:50:55.046Z,20.9906
2023-04-11T06:51:55.548Z,20.9902
2023-04-11T06:52:57.299Z,21.1393
2023-04-11T06:53:58.888Z,21.1611
2023-04-11T06:55:00.564Z,21.1360
2023-04-11T06:56:02.164Z,21.1034
2023-04-11T06:57:03.881Z,21.0187
2023-04-11T06:58:05.355Z,20.9840
2023-04-11T06:59:07.301Z,21.1026
2023-04-11T07:00:08.727Z,21.1732
2023-04-11T07:01:10.373Z,21.1956
2023-04-11T07:02:12.112Z,21.1212
2023-04-11T07:03:13.797Z,21.0498
2023-04-11T07:04:15.516Z,21.0648
2023-04-11T07:05:16.981Z,21.2005
2023-04-11T07:06:18.696Z,21.2176
2023-04-11T07:07:20.318Z,21.2377
2023-04-11T07:08:21.894Z,21.2034
2023-04-11T07:09:23.592Z,21.1194
2023-04-11T07:10:25.258Z,21.1451
2023-04-11T07:11:26.950Z,21.2566
2023-04-11T07:12:28.458Z,21.3055
2023-04-11T07:13:30.904Z,21.3449
2023-04-11T07:14:31.904Z,21.2730
2023-04-11T07:15:33.463Z,21.2209
2023-04-11T07:16:35.170Z,21.1929
2023-04-11T07:17:36.967Z,21.2839
2023-04-11T07:18:38.400Z,21.3236
2023-04-11T07:19:40.103Z,21.3511
2023-04-11T07:20:41.725Z,21.3158
2023-04-11T07:21:43.405Z,21.2654
2023-04-11T07:22:45.032Z,21.2615
2023-04-11T07:23:46.661Z,21.3786
2023-04-11T07:24:48.340Z,21.4238
2023-04-11T07:25:49.953Z,21.4347
2023-04-11T07:26:51.798Z,21.3967
2023-04-11T07:27:53.334Z,21.3203
2023-04-11T07:28:54.972Z,21.3228
2023-04-11T07:29:56.830Z,21.4105
2023-04-11T07:30:58.244Z,21.4363
2023-04-11T07:31:59.863Z,21.4446
2023-04-11T07:33:01.505Z,21.4244
2023-04-11T07:34:03.135Z,21.3610
2023-04-11T07:35:05.050Z,21.3004
2023-04-11T07:36:06.499Z,21.4164
2023-04-11T07:37:08.081Z,21.4470
2023-04-11T07:38:09.790Z,21.4645
2023-04-11T07:39:11.460Z,21.4520
2023-04-11T07:40:13.522Z,21.4193
2023-04-11T07:41:14.694Z,21.3957
2023-04-11T07:42:16.311Z,21.3665
2023-04-11T07:43:18.116Z,21.3474
2023-04-11T07:44:19.825Z,21.3825
2023-04-11T07:45:21.365Z,21.4111
2023-04-11T07:46:22.949Z,21.4287
2023-04-11T07:47:24.603Z,21.4035
2023-04-11T07:48:26.344Z,21.3667
2023-04-11T07:49:27.948Z,21.4127
2023-04-11T07:50:29.768Z,21.4729
2023-04-11T07:51:31.154Z,21.4778
2023-04-11T07:52:32.911Z,21.4698
2023-04-11T07:53:34.504Z,21.4421
2023-04-11T07:54:36.101Z,21.4349
2023-04-11T07:55:37.837Z,21.4766
2023-04-11T07:56:40.405Z,21.5337
2023-04-11T07:57:41.087Z,21.5475
2023-04-11T07:58:42.772Z,21.5388
2023-04-11T07:59:44.572Z,21.5039
2023-04-11T08:00:45.991Z,21.4871
2023-04-11T08:01:47.775Z,21.4799
2023-04-11T08:02:50.356Z,21.4990
2023-04-11T08:03:51.076Z,21.5158
2023-04-11T08:04:52.754Z,21.5347
2023-04-11T08:05:54.239Z,21.4953
2023-04-11T08:06:55.896Z,21.4700
2023-04-11T08:07:57.568Z,21.4620
2023-04-11T08:08:59.285Z,21.5037
2023-04-11T08:10:00.848Z,21.5575
2023-04-11T08:11:02.506Z,21.5906
2023-04-11T08:12:04.200Z,21.5633
2023-04-11T08:13:05.856Z,21.5290
2023-04-11T08:14:07.416Z,21.5204
2023-04-11T08:15:09.167Z,21.6204
2023-04-11T08:16:10.837Z,21.6843
2023-04-11T08:17:25.143Z,21.7054
2023-04-11T08:18:14.068Z,21.6870
2023-04-11T08:19:15.698Z,21.6335
2023-04-11T08:20:17.416Z,21.5914
2023-04-11T08:21:19.045Z,21.6744
2023-04-11T08:22:21.022Z,21.7278
2023-04-11T08:23:22.384Z,21.7888
2023-04-11T08:24:23.962Z,21.7568
2023-04-11T08:25:25.630Z,21.7212
2023-04-11T08:26:27.957Z,21.7297
2023-04-11T08:27:28.912Z,21.8601
2023-04-11T08:28:30.714Z,21.8991
2023-04-11T08:29:32.436Z,21.9215
2023-04-11T08:30:33.868Z,21.8490
2023-04-11T08:31:35.456Z,21.7673
2023-04-11T08:32:37.420Z,21.7673
2023-04-11T08:33:38.713Z,21.8096
2023-04-11T08:34:40.389Z,21.8728
2023-04-11T08:35:42.112Z,21.9039
2023-04-11T08:36:43.712Z,21.8552
2023-04-11T08:37:45.938Z,21.7833
2023-04-11T08:38:47.023Z,21.7650
2023-04-11T08:39:48.709Z,21.8726
2023-04-11T08:40:50.532Z,21.8870
2023-04-11T08:41:52.201Z,21.9020
2023-04-11T08:42:53.633Z,21.8470
2023-04-11T08:43:55.572Z,21.8478
2023-04-11T08:44:56.925Z,21.8350
2023-04-11T08:45:58.569Z,21.8083
2023-04-11T08:47:00.283Z,21.8876
2023-04-11T08:48:01.907Z,21.8926
2023-04-11T08:49:03.703Z,21.9275
2023-04-11T08:50:05.091Z,21.9110
2023-04-11T08:51:06.807Z,21.8911
2023-04-11T08:52:08.807Z,21.8926
2023-04-11T08:53:10.055Z,21.9581
2023-04-11T08:54:11.726Z,21.9772
2023-04-11T08:55:13.413Z,21.9856
2023-04-11T08:56:15.023Z,21.9482
2023-04-11T08:57:16.722Z,21.8595
2023-04-11T08:58:18.414Z,21.9174
2023-04-11T08:59:20.052Z,21.9930
2023-04-11T09:00:21.613Z,22.0302
2023-04-11T09:01:23.355Z,22.0333
2023-04-11T09:02:25.109Z,21.9692
2023-04-11T09:03:26.605Z,21.9696
2023-04-11T09:04:29.073Z,22.0733
2023-04-11T09:05:30.202Z,22.1727
2023-04-11T09:06:31.598Z,22.1951
2023-04-11T09:07:33.216Z,22.1758
2023-04-11T09:08:34.830Z,22.0368
2023-04-11T09:09:36.471Z,22.0396
2023-04-11T09:10:38.089Z,22.1851
2023-04-11T09:11:39.764Z,22.2241
2023-04-11T09:12:41.408Z,22.2494
2023-04-11T09:13:43.817Z,22.2204
2023-04-11T09:14:44.694Z,22.1627
2023-04-11T09:15:46.451Z,22.2251
2023-04-11T09:16:47.898Z,22.3779
2023-04-11T09:17:49.546Z,22.4369
2023-04-11T09:18:51.209Z,22.4624
2023-04-11T09:19:52.872Z,22.4375
2023-04-11T09:20:54.584Z,22.3266
2023-04-11T09:21:56.205Z,22.4357
2023-04-11T09:22:57.821Z,22.5353
2023-04-11T09:23:59.427Z,22.6269
2023-04-11T09:25:01.146Z,22.6450
2023-04-11T09:26:02.840Z,22.5172
2023-04-11T09:27:04.454Z,22.4500
2023-04-11T09:28:06.137Z,22.4759
2023-04-11T09:29:07.746Z,22.5595
2023-04-11T09:30:09.397Z,22.6144
2023-04-11T09:31:11.423Z,22.6002
2023-04-11T09:32:13.403Z,22.4926
2023-04-11T09:33:14.359Z,22.4646
2023-04-11T09:34:16.414Z,22.5320
2023-04-11T09:35:18.236Z,22.5963
2023-04-11T09:36:19.330Z,22.6193
2023-04-11T09:37:21.050Z,22.5790
2023-04-11T09:38:22.825Z,22.4866
2023-04-11T09:39:24.296Z,22.4963
2023-04-11T09:40:25.905Z,22.6098
2023-04-11T09:41:27.813Z,22.6694
2023-04-11T09:42:29.311Z,22.6709
2023-04-11T09:43:30.922Z,22.6041
2023-04-11T09:44:32.701Z,22.5090
2023-04-11T09:45:44.212Z,22.4922
2023-04-11T09:46:35.809Z,22.5998
2023-04-11T09:47:37.498Z,22.6546
2023-04-11T09:48:46.502Z,22.6877
2023-04-11T09:49:40.837Z,22.6345
2023-04-11T09:50:42.448Z,22.5359
2023-04-11T09:51:44.025Z,22.5437
2023-04-11T09:52:45.689Z,22.6922
2023-04-11T09:53:47.397Z,22.7372
2023-04-11T09:54:48.980Z,22.7582
2023-04-11T09:55:50.662Z,22.6690
2023-04-11T09:56:52.348Z,22.5538
2023-04-11T09:57:54.918Z,22.5797
2023-04-11T09:58:55.872Z,22.7333
2023-04-11T09:59:58.789Z,22.7785
2023-04-11T10:00:58.814Z,22.7982
2023-04-11T10:02:00.625Z,22.7068
2023-04-11T10:03:02.613Z,22.6341
2023-04-11T10:04:04.589Z,22.6787
2023-04-11T10:05:05.609Z,22.8075
2023-04-11T10:06:07.215Z,22.8650
2023-04-11T10:07:08.842Z,22.8728
2023-04-11T10:08:10.515Z,22.7740
2023-04-11T10:09:12.182Z,22.6713
2023-04-11T10:10:13.783Z,22.7762
2023-04-11T10:11:15.438Z,22.8906
2023-04-11T10:12:17.149Z,22.9235
2023-04-11T10:13:18.840Z,22.9280
2023-04-11T10:14:20.532Z,22.8091
2023-04-11T10:15:21.981Z,22.7549
2023-04-11T10:16:23.821Z,22.8596
2023-04-11T10:17:25.411Z,22.9545
2023-04-11T10:18:27.004Z,22.9913
2023-04-11T10:19:28.686Z,22.9975
2023-04-11T10:20:30.319Z,22.9229
2023-04-11T10:21:32.026Z,22.9198
2023-04-11T10:22:33.576Z,23.0281
2023-04-11T10:23:35.272Z,23.1026
2023-04-11T10:24:36.972Z,23.1285
2023-04-11T10:25:38.559Z,23.0825
2023-04-11T10:26:40.173Z,23.0022
2023-04-11T10:27:41.841Z,22.9689
2023-04-11T10:28:43.726Z,23.0252
2023-04-11T10:29:45.282Z,23.1221
2023-04-11T10:30:46.866Z,23.1628
2023-04-11T10:31:48.634Z,23.1037
2023-04-11T10:32:50.191Z,22.9944
2023-04-11T10:33:51.989Z,22.9779
2023-04-11T10:34:53.556Z,23.1041
2023-04-11T10:35:55.171Z,23.1973
2023-04-11T10:36:56.764Z,23.2310
2023-04-11T10:37:58.990Z,23.1636
2023-04-11T10:39:00.090Z,23.0192
2023-04-11T10:40:01.816Z,23.0075
2023-04-11T10:41:03.470Z,23.1332
2023-04-11T10:42:05.032Z,23.2450
2023-04-11T10:43:07.499Z,23.2776
2023-04-11T10:44:08.362Z,23.2251
2023-04-11T10:45:10.144Z,23.0673
2023-04-11T10:46:11.590Z,23.0235
2023-04-11T10:47:13.593Z,23.1969
2023-04-11T10:48:14.911Z,23.2729
2023-04-11T10:49:16.578Z,23.2832
2023-04-11T10:50:18.655Z,23.1805
2023-04-11T10:51:19.891Z,23.0285
2023-04-11T10:52:21.570Z,23.0934
2023-04-11T10:53:23.217Z,23.2240
2023-04-11T10:54:24.883Z,23.2820
2023-04-11T10:55:27.086Z,23.2758
2023-04-11T10:56:28.184Z,23.1587
2023-04-11T10:57:29.841Z,23.0221
2023-04-11T10:58:31.475Z,23.0813
2023-04-11T10:59:33.097Z,23.2618
2023-04-11T11:00:35.198Z,23.2844
2023-04-11T11:01:42.966Z,23.2524
2023-04-11T11:02:38.425Z,23.0907
2023-04-11T11:03:39.926Z,22.9989
2023-04-11T11:04:41.417Z,23.0583
2023-04-11T11:05:42.997Z,23.2296
2023-04-11T11:06:51.103Z,23.2657
2023-04-11T11:07:46.251Z,23.2449
2023-04-11T11:08:48.397Z,23.0876
2023-04-11T11:09:49.514Z,23.0024
2023-04-11T11:10:51.274Z,23.1486
2023-04-11T11:11:52.818Z,23.2746
2023-04-11T11:12:54.549Z,23.3409
2023-04-11T11:13:56.490Z,23.3508
2023-04-11T11:14:57.814Z,23.2088
2023-04-11T11:15:59.418Z,23.0843
2023-04-11T11:17:01.222Z,23.1690
2023-04-11T11:18:02.756Z,23.3064
2023-04-11T11:19:04.872Z,23.3678
2023-04-11T11:20:06.039Z,23.3660
2023-04-11T11:21:14.170Z,23.2553
2023-04-11T11:22:09.307Z,23.1595
2023-04-11T11:23:14.125Z,23.2347
2023-04-11T11:24:17.585Z,23.3789
2023-04-11T11:25:19.189Z,23.4034
2023-04-11T11:26:20.806Z,23.3569
2023-04-11T11:27:22.413Z,23.2053
2023-04-11T11:28:24.169Z,23.1371
2023-04-11T11:29:25.798Z,23.2815
2023-04-11T11:30:27.357Z,23.3828
2023-04-11T11:31:30.033Z,23.3931
2023-04-11T11:32:30.641Z,23.3510
2023-04-11T11:33:32.396Z,23.2002
2023-04-11T11:34:34.056Z,23.0973
2023-04-11T11:35:35.688Z,23.2598
2023-04-11T11:36:37.249Z,23.3791
2023-04-11T11:37:38.896Z,23.3974
2023-04-11T11:38:41.390Z,23.3323
2023-04-11T11:39:42.238Z,23.1916
2023-04-11T11:40:43.807Z,23.1509
2023-04-11T11:41:46.560Z,23.2914
2023-04-11T11:42:47.140Z,23.3368
2023-04-11T11:43:48.736Z,23.3588
2023-04-11T11:44:50.550Z,23.2655
2023-04-11T11:45:52.138Z,23.1213
2023-04-11T11:46:53.742Z,23.0979
2023-04-11T11:47:55.886Z,23.2029
2023-04-11T11:48:57.288Z,23.2930
2023-04-11T11:49:58.668Z,23.3054
2023-04-11T11:51:01.008Z,23.2263
2023-04-11T11:52:02.099Z,23.0589
2023-04-11T11:53:03.702Z,23.0418
2023-04-11T11:54:05.351Z,23.2575
2023-04-11T11:55:10.860Z,23.3467
2023-04-11T11:56:08.713Z,23.3969
2023-04-11T11:57:10.680Z,23.3592
2023-04-11T11:58:12.153Z,23.2271
2023-04-11T11:59:13.672Z,23.2273
2023-04-11T12:00:15.290Z,23.3009
2023-04-11T12:01:17.196Z,23.3514
2023-04-11T12:02:18.691Z,23.3399
2023-04-11T12:03:20.608Z,23.2384
2023-04-11T12:04:22.189Z,23.2039
2023-04-11T12:05:23.864Z,23.2242
2023-04-11T12:06:25.419Z,23.2641
2023-04-11T12:07:27.010Z,23.3195
2023-04-11T12:08:28.553Z,23.3099
2023-04-11T12:09:30.208Z,23.2308
2023-04-11T12:10:31.894Z,23.2088
2023-04-11T12:11:34.013Z,23.2875
2023-04-11T12:12:35.180Z,23.3456
2023-04-11T12:13:36.856Z,23.3771
2023-04-11T12:14:38.417Z,23.3095
2023-04-11T12:15:40.100Z,23.2668
2023-04-11T12:16:41.798Z,23.2688
2023-04-11T12:17:43.435Z,23.3384
2023-04-11T12:18:45.131Z,23.3925
2023-04-11T12:19:46.776Z,23.4181
2023-04-11T12:20:48.364Z,23.3725
2023-04-11T12:21:50.030Z,23.3335
2023-04-11T12:22:53.674Z,23.3089
2023-04-11T12:23:53.540Z,23.3618
2023-04-11T12:24:54.840Z,23.3877
2023-04-11T12:25:56.668Z,23.4068